Terminal Aerodrome Forecast
Issued by NWS

Home | Current Version | Previous Version | Text Only | Print | Product List | Glossary On
Versions: 1 2 3 4 5 6 7 8 9 10 11 12 13 14 15 16 17 18 19 20 21 22
000
FTUS46 KLOX 111700
TAFSBP
TAF
KSBP 111735Z 1118/1218 VRB03KT P6SM OVC015
     FM112100 VRB05KT P6SM SCT020
     FM120500 31006KT P6SM BKN014
     FM121000 VRB03KT P6SM OVC010=

USA.gov is the U.S. government's official web portal to all federal, state and local government web resources and services.